Peck, KS (67120)

7:54 PM CDT on April 28, 2017 (GMT -0500)
87th St S/S Woodside | | Change Station

Elev 1293 ft 37.53 °N, 97.35 °W | Updated 19 seconds ago

Partly Cloudy
Partly Cloudy
68.7 °F
Feels Like 68.7 °F
N
8.0
Wind Variable Wind from NE
Gusts 13.0 mph

Today
High -- | Low -- °F
--% Chance of Precip.
Yesterday
High -- | Low -- °F
Precip. -- in
Pressure 29.71 in
Visibility 10.0 miles
Clouds Clear
Dew Point 48 °F
Humidity 48%
Rainfall 0.00 in
Snow Depth Not available.
6:37 AM 8:16 PM
Waxing Crescent, 9% visible
METAR KIAB 282358Z AUTO 02010KT 10SM CLR 20/08 A2972 RMK AO2 SLP061 T02020077 10236 20201 52029
Pressure 29.71 in
Visibility 10.0 miles
Clouds Clear
Dew Point 48 °F
Humidity 48%
Rainfall 0.00 in
Snow Depth Not available.
6:37 AM 8:16 PM
Waxing Crescent, 9% visible
METAR KIAB 282358Z AUTO 02010KT 10SM CLR 20/08 A2972 RMK AO2 SLP061 T02020077 10236 20201 52029

Get Severe Weather Alerts

Thanks for signing up!

Be on the lookout for a verification email in your inbox.

You'll start receiving the daily forecast at 8 AM.

×

10-Day Weather Forecast

Almanac

Astronomy

Apr. 28, 2017 Rise Set
Actual Time
Civil Twilight
Nautical Twilight
Astronomical Twilight
Moon
Length of Visible Light
Length of Day
Tomorrow will be .
, % of the Moon is Illuminated

Today's Extremes

State Highs State Lows

Community

WunderPhotos

WunderBlog® & News

Nearby

Air Quality

  Air Quality AQ Index Pollutant
Not available.

Snow Depth

Station Depth Elevation

Earthquake Activity

City Distance Mag. Time & Date
Minimum magnitude displayed is 2.5.

Coastal Water Temperatures

Place Temperature

Stations

Nearby Weather Stations

Station Location Temp. Windchill Dew Point Humidity Wind Precip. Elev Updated Type
                   

Watches & Warnings

There are currently no watches in effect.